sensor_id;sensor_type;location;lat;lon;timestamp;P1;durP1;ratioP1;P2;durP2;ratioP2
40807;SDS011;26523;52.504;13.498;2022-12-07T00:00:29;10.77;;;4.05;;
40807;SDS011;26523;52.504;13.498;2022-12-07T00:02:55;9.85;;;3.63;;
40807;SDS011;26523;52.504;13.498;2022-12-07T00:05:20;12.38;;;4.32;;
40807;SDS011;26523;52.504;13.498;2022-12-07T00:07:46;9.70;;;3.80;;
40807;SDS011;26523;52.504;13.498;2022-12-07T00:10:12;10.43;;;3.75;;
40807;SDS011;26523;52.504;13.498;2022-12-07T00:12:38;12.23;;;3.60;;
40807;SDS011;26523;52.504;13.498;2022-12-07T00:15:03;8.45;;;3.47;;
40807;SDS011;26523;52.504;13.498;2022-12-07T00:17:29;17.30;;;4.57;;
40807;SDS011;26523;52.504;13.498;2022-12-07T00:19:55;8.70;;;3.15;;
40807;SDS011;26523;52.504;13.498;2022-12-07T00:22:20;7.85;;;3.35;;
40807;SDS011;26523;52.504;13.498;2022-12-07T00:24:46;7.35;;;3.13;;
40807;SDS011;26523;52.504;13.498;2022-12-07T00:27:12;9.00;;;3.42;;
40807;SDS011;26523;52.504;13.498;2022-12-07T00:29:37;7.60;;;2.78;;
40807;SDS011;26523;52.504;13.498;2022-12-07T00:32:03;8.45;;;3.40;;
40807;SDS011;26523;52.504;13.498;2022-12-07T00:34:29;11.40;;;4.07;;
40807;SDS011;26523;52.504;13.498;2022-12-07T00:36:54;13.23;;;3.80;;
40807;SDS011;26523;52.504;13.498;2022-12-07T00:39:20;10.00;;;3.60;;
40807;SDS011;26523;52.504;13.498;2022-12-07T00:41:46;8.52;;;3.17;;
40807;SDS011;26523;52.504;13.498;2022-12-07T00:44:11;10.48;;;3.08;;
40807;SDS011;26523;52.504;13.498;2022-12-07T00:46:37;8.38;;;3.08;;
40807;SDS011;26523;52.504;13.498;2022-12-07T00:49:03;9.60;;;2.97;;
40807;SDS011;26523;52.504;13.498;2022-12-07T00:51:29;8.35;;;3.33;;
40807;SDS011;26523;52.504;13.498;2022-12-07T00:53:54;10.10;;;4.50;;
40807;SDS011;26523;52.504;13.498;2022-12-07T00:56:22;9.18;;;3.88;;
40807;SDS011;26523;52.504;13.498;2022-12-07T00:58:56;8.55;;;3.80;;
40807;SDS011;26523;52.504;13.498;2022-12-07T01:01:23;6.75;;;3.15;;
40807;SDS011;26523;52.504;13.498;2022-12-07T01:03:50;12.57;;;3.30;;
40807;SDS011;26523;52.504;13.498;2022-12-07T01:06:17;10.20;;;3.78;;
40807;SDS011;26523;52.504;13.498;2022-12-07T01:08:44;6.35;;;3.25;;
40807;SDS011;26523;52.504;13.498;2022-12-07T01:11:11;9.85;;;4.07;;
40807;SDS011;26523;52.504;13.498;2022-12-07T01:13:38;7.90;;;3.50;;
40807;SDS011;26523;52.504;13.498;2022-12-07T01:16:05;8.20;;;3.53;;
40807;SDS011;26523;52.504;13.498;2022-12-07T01:18:33;8.27;;;2.70;;
40807;SDS011;26523;52.504;13.498;2022-12-07T01:21:04;8.15;;;2.95;;
40807;SDS011;26523;52.504;13.498;2022-12-07T01:23:33;7.07;;;3.25;;
40807;SDS011;26523;52.504;13.498;2022-12-07T01:26:00;7.15;;;2.75;;
40807;SDS011;26523;52.504;13.498;2022-12-07T01:28:28;7.68;;;3.00;;
40807;SDS011;26523;52.504;13.498;2022-12-07T01:31:02;8.65;;;3.25;;
40807;SDS011;26523;52.504;13.498;2022-12-07T01:33:30;7.60;;;3.17;;
40807;SDS011;26523;52.504;13.498;2022-12-07T01:36:01;7.90;;;3.60;;
40807;SDS011;26523;52.504;13.498;2022-12-07T01:38:37;7.90;;;2.97;;
40807;SDS011;26523;52.504;13.498;2022-12-07T01:41:03;7.97;;;2.60;;
40807;SDS011;26523;52.504;13.498;2022-12-07T01:43:29;6.63;;;3.10;;
40807;SDS011;26523;52.504;13.498;2022-12-07T01:45:56;5.43;;;2.42;;
40807;SDS011;26523;52.504;13.498;2022-12-07T01:48:29;8.05;;;3.78;;
40807;SDS011;26523;52.504;13.498;2022-12-07T01:51:00;5.97;;;3.22;;
40807;SDS011;26523;52.504;13.498;2022-12-07T01:53:30;5.82;;;2.90;;
40807;SDS011;26523;52.504;13.498;2022-12-07T01:55:57;6.63;;;2.95;;
40807;SDS011;26523;52.504;13.498;2022-12-07T01:58:24;8.93;;;3.47;;
40807;SDS011;26523;52.504;13.498;2022-12-07T02:00:50;11.18;;;3.33;;
40807;SDS011;26523;52.504;13.498;2022-12-07T02:03:21;9.15;;;2.90;;
40807;SDS011;26523;52.504;13.498;2022-12-07T02:05:52;5.15;;;2.38;;
40807;SDS011;26523;52.504;13.498;2022-12-07T02:08:19;11.20;;;3.47;;
40807;SDS011;26523;52.504;13.498;2022-12-07T02:10:45;5.97;;;2.80;;
40807;SDS011;26523;52.504;13.498;2022-12-07T02:13:13;5.90;;;1.90;;
40807;SDS011;26523;52.504;13.498;2022-12-07T02:15:45;5.47;;;2.55;;
40807;SDS011;26523;52.504;13.498;2022-12-07T02:18:35;11.20;;;3.30;;
40807;SDS011;26523;52.504;13.498;2022-12-07T02:30:07;6.53;;;3.00;;
40807;SDS011;26523;52.504;13.498;2022-12-07T02:32:55;4.55;;;2.25;;
40807;SDS011;26523;52.504;13.498;2022-12-07T02:35:32;7.32;;;2.13;;
40807;SDS011;26523;52.504;13.498;2022-12-07T02:43:14;4.63;;;2.50;;
40807;SDS011;26523;52.504;13.498;2022-12-07T02:45:48;6.45;;;2.20;;
40807;SDS011;26523;52.504;13.498;2022-12-07T02:48:18;6.45;;;2.65;;
40807;SDS011;26523;52.504;13.498;2022-12-07T02:50:48;6.88;;;2.70;;
40807;SDS011;26523;52.504;13.498;2022-12-07T02:53:34;10.07;;;2.10;;
40807;SDS011;26523;52.504;13.498;2022-12-07T02:56:03;5.18;;;2.05;;
40807;SDS011;26523;52.504;13.498;2022-12-07T03:07:30;5.45;;;2.38;;
40807;SDS011;26523;52.504;13.498;2022-12-07T03:13:05;5.90;;;2.58;;
40807;SDS011;26523;52.504;13.498;2022-12-07T03:15:38;8.20;;;2.50;;
40807;SDS011;26523;52.504;13.498;2022-12-07T03:18:18;4.70;;;2.35;;
40807;SDS011;26523;52.504;13.498;2022-12-07T03:20:46;7.18;;;2.75;;
40807;SDS011;26523;52.504;13.498;2022-12-07T03:23:14;6.07;;;2.78;;
40807;SDS011;26523;52.504;13.498;2022-12-07T03:25:49;5.32;;;2.80;;
40807;SDS011;26523;52.504;13.498;2022-12-07T03:28:19;7.22;;;3.40;;
40807;SDS011;26523;52.504;13.498;2022-12-07T03:30:51;6.55;;;2.63;;
40807;SDS011;26523;52.504;13.498;2022-12-07T03:33:24;7.43;;;2.33;;
40807;SDS011;26523;52.504;13.498;2022-12-07T03:38:56;8.10;;;2.70;;
40807;SDS011;26523;52.504;13.498;2022-12-07T03:41:29;7.10;;;3.55;;
40807;SDS011;26523;52.504;13.498;2022-12-07T03:43:58;7.43;;;3.38;;
40807;SDS011;26523;52.504;13.498;2022-12-07T03:51:28;5.55;;;2.55;;
40807;SDS011;26523;52.504;13.498;2022-12-07T03:56:44;5.05;;;2.40;;
40807;SDS011;26523;52.504;13.498;2022-12-07T03:59:11;7.00;;;3.22;;
40807;SDS011;26523;52.504;13.498;2022-12-07T04:01:40;6.63;;;3.50;;
40807;SDS011;26523;52.504;13.498;2022-12-07T04:04:07;7.47;;;3.28;;
40807;SDS011;26523;52.504;13.498;2022-12-07T04:06:33;7.93;;;2.97;;
40807;SDS011;26523;52.504;13.498;2022-12-07T04:08:58;9.57;;;3.28;;
40807;SDS011;26523;52.504;13.498;2022-12-07T04:11:24;9.52;;;3.42;;
40807;SDS011;26523;52.504;13.498;2022-12-07T04:13:50;8.27;;;3.63;;
40807;SDS011;26523;52.504;13.498;2022-12-07T04:16:34;7.63;;;2.88;;
40807;SDS011;26523;52.504;13.498;2022-12-07T04:19:00;9.70;;;3.05;;
40807;SDS011;26523;52.504;13.498;2022-12-07T04:21:25;10.02;;;4.07;;
40807;SDS011;26523;52.504;13.498;2022-12-07T04:23:51;10.95;;;3.95;;
40807;SDS011;26523;52.504;13.498;2022-12-07T04:26:16;9.30;;;4.28;;
40807;SDS011;26523;52.504;13.498;2022-12-07T04:28:42;11.60;;;3.97;;
40807;SDS011;26523;52.504;13.498;2022-12-07T04:31:08;11.32;;;4.28;;
40807;SDS011;26523;52.504;13.498;2022-12-07T04:33:34;14.65;;;4.10;;
40807;SDS011;26523;52.504;13.498;2022-12-07T04:36:01;10.18;;;4.15;;
40807;SDS011;26523;52.504;13.498;2022-12-07T04:38:27;10.00;;;3.40;;
40807;SDS011;26523;52.504;13.498;2022-12-07T04:40:52;12.48;;;4.65;;
40807;SDS011;26523;52.504;13.498;2022-12-07T04:43:18;15.35;;;4.45;;
40807;SDS011;26523;52.504;13.498;2022-12-07T04:45:47;9.43;;;3.85;;
40807;SDS011;26523;52.504;13.498;2022-12-07T04:48:13;10.50;;;4.40;;
40807;SDS011;26523;52.504;13.498;2022-12-07T04:50:39;8.55;;;4.38;;
40807;SDS011;26523;52.504;13.498;2022-12-07T04:53:05;12.50;;;5.15;;
40807;SDS011;26523;52.504;13.498;2022-12-07T04:55:31;11.70;;;4.50;;
40807;SDS011;26523;52.504;13.498;2022-12-07T04:57:56;13.18;;;4.90;;
40807;SDS011;26523;52.504;13.498;2022-12-07T05:00:22;13.63;;;4.80;;
40807;SDS011;26523;52.504;13.498;2022-12-07T05:02:47;11.35;;;5.07;;
40807;SDS011;26523;52.504;13.498;2022-12-07T05:05:14;21.48;;;5.57;;
40807;SDS011;26523;52.504;13.498;2022-12-07T05:07:40;15.52;;;5.53;;
40807;SDS011;26523;52.504;13.498;2022-12-07T05:10:06;14.77;;;5.07;;
40807;SDS011;26523;52.504;13.498;2022-12-07T05:12:32;17.02;;;7.07;;
40807;SDS011;26523;52.504;13.498;2022-12-07T05:14:58;11.38;;;5.47;;
40807;SDS011;26523;52.504;13.498;2022-12-07T05:17:23;21.85;;;6.45;;
40807;SDS011;26523;52.504;13.498;2022-12-07T05:19:49;12.57;;;5.57;;
40807;SDS011;26523;52.504;13.498;2022-12-07T05:22:15;18.23;;;6.35;;
40807;SDS011;26523;52.504;13.498;2022-12-07T05:24:40;13.45;;;6.13;;
40807;SDS011;26523;52.504;13.498;2022-12-07T05:27:06;15.50;;;5.20;;
40807;SDS011;26523;52.504;13.498;2022-12-07T05:29:32;17.70;;;6.07;;
40807;SDS011;26523;52.504;13.498;2022-12-07T05:31:57;10.38;;;4.95;;
40807;SDS011;26523;52.504;13.498;2022-12-07T05:34:23;14.73;;;5.63;;
40807;SDS011;26523;52.504;13.498;2022-12-07T05:36:49;18.58;;;6.85;;
40807;SDS011;26523;52.504;13.498;2022-12-07T05:39:15;18.00;;;6.72;;
40807;SDS011;26523;52.504;13.498;2022-12-07T05:41:41;14.70;;;5.90;;
40807;SDS011;26523;52.504;13.498;2022-12-07T05:44:25;18.50;;;6.03;;
40807;SDS011;26523;52.504;13.498;2022-12-07T05:46:51;17.35;;;7.13;;
40807;SDS011;26523;52.504;13.498;2022-12-07T05:49:16;18.83;;;6.10;;
40807;SDS011;26523;52.504;13.498;2022-12-07T05:51:42;18.15;;;6.22;;
40807;SDS011;26523;52.504;13.498;2022-12-07T05:54:08;16.48;;;5.95;;
40807;SDS011;26523;52.504;13.498;2022-12-07T05:56:34;21.70;;;6.95;;
40807;SDS011;26523;52.504;13.498;2022-12-07T05:58:59;13.70;;;6.45;;
40807;SDS011;26523;52.504;13.498;2022-12-07T06:01:44;14.20;;;6.22;;
40807;SDS011;26523;52.504;13.498;2022-12-07T06:04:09;16.77;;;5.78;;
40807;SDS011;26523;52.504;13.498;2022-12-07T06:06:35;23.08;;;6.85;;
40807;SDS011;26523;52.504;13.498;2022-12-07T06:09:02;17.77;;;6.97;;
40807;SDS011;26523;52.504;13.498;2022-12-07T06:11:28;21.95;;;6.95;;
40807;SDS011;26523;52.504;13.498;2022-12-07T06:14:12;17.05;;;6.47;;
40807;SDS011;26523;52.504;13.498;2022-12-07T06:16:38;19.42;;;6.97;;
40807;SDS011;26523;52.504;13.498;2022-12-07T06:19:04;15.65;;;6.03;;
40807;SDS011;26523;52.504;13.498;2022-12-07T06:21:30;18.15;;;6.63;;
40807;SDS011;26523;52.504;13.498;2022-12-07T06:23:55;18.83;;;6.95;;
40807;SDS011;26523;52.504;13.498;2022-12-07T06:26:21;21.25;;;7.85;;
40807;SDS011;26523;52.504;13.498;2022-12-07T06:28:47;22.45;;;7.13;;
40807;SDS011;26523;52.504;13.498;2022-12-07T06:31:12;18.13;;;6.60;;
40807;SDS011;26523;52.504;13.498;2022-12-07T06:33:38;17.58;;;6.50;;
40807;SDS011;26523;52.504;13.498;2022-12-07T06:36:04;21.30;;;6.82;;
40807;SDS011;26523;52.504;13.498;2022-12-07T06:38:30;18.23;;;6.40;;
40807;SDS011;26523;52.504;13.498;2022-12-07T06:40:55;17.25;;;6.55;;
40807;SDS011;26523;52.504;13.498;2022-12-07T06:43:21;16.27;;;7.13;;
40807;SDS011;26523;52.504;13.498;2022-12-07T06:45:47;22.02;;;6.82;;
40807;SDS011;26523;52.504;13.498;2022-12-07T06:48:13;15.07;;;6.38;;
40807;SDS011;26523;52.504;13.498;2022-12-07T06:50:39;15.55;;;6.50;;
40807;SDS011;26523;52.504;13.498;2022-12-07T06:53:04;19.70;;;8.27;;
40807;SDS011;26523;52.504;13.498;2022-12-07T06:55:30;20.67;;;6.97;;
40807;SDS011;26523;52.504;13.498;2022-12-07T06:57:56;17.35;;;4.82;;
40807;SDS011;26523;52.504;13.498;2022-12-07T07:00:21;14.60;;;6.25;;
40807;SDS011;26523;52.504;13.498;2022-12-07T07:02:47;18.70;;;7.28;;
40807;SDS011;26523;52.504;13.498;2022-12-07T07:05:13;22.35;;;8.13;;
40807;SDS011;26523;52.504;13.498;2022-12-07T07:07:39;21.75;;;7.63;;
40807;SDS011;26523;52.504;13.498;2022-12-07T07:10:04;16.83;;;6.38;;
40807;SDS011;26523;52.504;13.498;2022-12-07T07:12:30;18.65;;;7.28;;
40807;SDS011;26523;52.504;13.498;2022-12-07T07:14:56;23.52;;;6.95;;
40807;SDS011;26523;52.504;13.498;2022-12-07T07:17:22;22.52;;;7.35;;
40807;SDS011;26523;52.504;13.498;2022-12-07T07:19:47;16.27;;;6.07;;
40807;SDS011;26523;52.504;13.498;2022-12-07T07:22:13;14.73;;;6.68;;
40807;SDS011;26523;52.504;13.498;2022-12-07T07:24:39;15.00;;;6.20;;
40807;SDS011;26523;52.504;13.498;2022-12-07T07:27:04;17.38;;;6.82;;
40807;SDS011;26523;52.504;13.498;2022-12-07T07:29:33;22.20;;;8.93;;
40807;SDS011;26523;52.504;13.498;2022-12-07T07:31:59;18.77;;;7.32;;
40807;SDS011;26523;52.504;13.498;2022-12-07T07:34:25;19.30;;;8.05;;
40807;SDS011;26523;52.504;13.498;2022-12-07T07:36:51;20.50;;;6.50;;
40807;SDS011;26523;52.504;13.498;2022-12-07T07:39:17;23.38;;;7.72;;
40807;SDS011;26523;52.504;13.498;2022-12-07T07:41:43;18.98;;;7.53;;
40807;SDS011;26523;52.504;13.498;2022-12-07T07:44:09;19.35;;;6.82;;
40807;SDS011;26523;52.504;13.498;2022-12-07T07:46:35;18.85;;;6.68;;
40807;SDS011;26523;52.504;13.498;2022-12-07T07:49:01;12.95;;;5.75;;
40807;SDS011;26523;52.504;13.498;2022-12-07T07:51:26;16.05;;;6.30;;
40807;SDS011;26523;52.504;13.498;2022-12-07T07:53:52;20.42;;;6.65;;
40807;SDS011;26523;52.504;13.498;2022-12-07T07:56:18;12.85;;;5.38;;
40807;SDS011;26523;52.504;13.498;2022-12-07T07:58:43;13.13;;;4.60;;
40807;SDS011;26523;52.504;13.498;2022-12-07T08:01:09;11.18;;;4.03;;
40807;SDS011;26523;52.504;13.498;2022-12-07T08:03:35;13.05;;;4.97;;
40807;SDS011;26523;52.504;13.498;2022-12-07T08:06:05;14.23;;;4.45;;
40807;SDS011;26523;52.504;13.498;2022-12-07T08:08:31;14.90;;;5.30;;
40807;SDS011;26523;52.504;13.498;2022-12-07T08:10:57;13.27;;;4.63;;
40807;SDS011;26523;52.504;13.498;2022-12-07T08:13:26;11.00;;;4.72;;
40807;SDS011;26523;52.504;13.498;2022-12-07T08:15:51;9.82;;;3.88;;
40807;SDS011;26523;52.504;13.498;2022-12-07T08:18:17;13.00;;;4.15;;
40807;SDS011;26523;52.504;13.498;2022-12-07T08:20:43;12.27;;;3.75;;
40807;SDS011;26523;52.504;13.498;2022-12-07T08:23:09;10.02;;;3.55;;
40807;SDS011;26523;52.504;13.498;2022-12-07T08:25:36;10.65;;;3.90;;
40807;SDS011;26523;52.504;13.498;2022-12-07T08:28:02;8.43;;;3.85;;
40807;SDS011;26523;52.504;13.498;2022-12-07T08:30:29;13.02;;;3.80;;
40807;SDS011;26523;52.504;13.498;2022-12-07T08:32:56;8.55;;;3.40;;
40807;SDS011;26523;52.504;13.498;2022-12-07T08:35:22;5.40;;;2.60;;
40807;SDS011;26523;52.504;13.498;2022-12-07T08:37:48;6.40;;;2.83;;
40807;SDS011;26523;52.504;13.498;2022-12-07T08:40:13;6.50;;;2.65;;
40807;SDS011;26523;52.504;13.498;2022-12-07T08:42:43;6.15;;;2.55;;
40807;SDS011;26523;52.504;13.498;2022-12-07T08:45:10;9.70;;;3.40;;
40807;SDS011;26523;52.504;13.498;2022-12-07T08:47:39;5.55;;;2.90;;
40807;SDS011;26523;52.504;13.498;2022-12-07T08:50:08;9.60;;;2.50;;
40807;SDS011;26523;52.504;13.498;2022-12-07T08:52:36;6.80;;;3.03;;
40807;SDS011;26523;52.504;13.498;2022-12-07T08:55:03;5.65;;;2.28;;
40807;SDS011;26523;52.504;13.498;2022-12-07T08:57:30;5.20;;;2.05;;
40807;SDS011;26523;52.504;13.498;2022-12-07T09:00:00;11.20;;;2.08;;
40807;SDS011;26523;52.504;13.498;2022-12-07T09:02:27;5.03;;;2.13;;
40807;SDS011;26523;52.504;13.498;2022-12-07T09:04:53;3.20;;;1.42;;
40807;SDS011;26523;52.504;13.498;2022-12-07T09:07:19;4.75;;;1.75;;
40807;SDS011;26523;52.504;13.498;2022-12-07T09:09:44;3.85;;;1.67;;
40807;SDS011;26523;52.504;13.498;2022-12-07T09:12:10;2.25;;;1.15;;
40807;SDS011;26523;52.504;13.498;2022-12-07T09:14:36;2.15;;;1.30;;
40807;SDS011;26523;52.504;13.498;2022-12-07T09:17:08;2.22;;;1.20;;
40807;SDS011;26523;52.504;13.498;2022-12-07T09:19:35;1.80;;;0.95;;
40807;SDS011;26523;52.504;13.498;2022-12-07T09:22:01;1.40;;;0.75;;
40807;SDS011;26523;52.504;13.498;2022-12-07T09:24:28;18.77;;;1.60;;
40807;SDS011;26523;52.504;13.498;2022-12-07T09:26:53;2.15;;;1.30;;
40807;SDS011;26523;52.504;13.498;2022-12-07T09:29:19;2.20;;;1.05;;
40807;SDS011;26523;52.504;13.498;2022-12-07T09:31:45;2.88;;;1.27;;
40807;SDS011;26523;52.504;13.498;2022-12-07T09:34:10;2.58;;;1.13;;
40807;SDS011;26523;52.504;13.498;2022-12-07T09:36:36;2.03;;;0.82;;
40807;SDS011;26523;52.504;13.498;2022-12-07T09:39:02;3.50;;;1.17;;
40807;SDS011;26523;52.504;13.498;2022-12-07T09:41:29;1.70;;;0.90;;
40807;SDS011;26523;52.504;13.498;2022-12-07T09:44:04;1.77;;;1.00;;
40807;SDS011;26523;52.504;13.498;2022-12-07T09:46:34;2.58;;;1.00;;
40807;SDS011;26523;52.504;13.498;2022-12-07T09:49:02;2.38;;;1.23;;
40807;SDS011;26523;52.504;13.498;2022-12-07T09:51:28;2.85;;;1.20;;
40807;SDS011;26523;52.504;13.498;2022-12-07T09:53:54;3.08;;;1.05;;
40807;SDS011;26523;52.504;13.498;2022-12-07T09:56:24;3.78;;;1.25;;
40807;SDS011;26523;52.504;13.498;2022-12-07T09:58:51;1.50;;;1.17;;
40807;SDS011;26523;52.504;13.498;2022-12-07T10:03:54;2.58;;;1.25;;
40807;SDS011;26523;52.504;13.498;2022-12-07T10:06:25;3.28;;;1.17;;
40807;SDS011;26523;52.504;13.498;2022-12-07T10:08:51;3.30;;;1.10;;
40807;SDS011;26523;52.504;13.498;2022-12-07T10:11:17;1.75;;;0.85;;
40807;SDS011;26523;52.504;13.498;2022-12-07T10:13:47;2.53;;;0.95;;
40807;SDS011;26523;52.504;13.498;2022-12-07T10:18:49;4.03;;;0.82;;
40807;SDS011;26523;52.504;13.498;2022-12-07T10:24:05;4.65;;;1.13;;
40807;SDS011;26523;52.504;13.498;2022-12-07T10:31:52;2.47;;;0.93;;
40807;SDS011;26523;52.504;13.498;2022-12-07T10:34:21;2.15;;;0.95;;
40807;SDS011;26523;52.504;13.498;2022-12-07T10:36:51;2.60;;;1.00;;
40807;SDS011;26523;52.504;13.498;2022-12-07T10:39:19;2.67;;;1.02;;
40807;SDS011;26523;52.504;13.498;2022-12-07T10:41:56;2.67;;;1.05;;
40807;SDS011;26523;52.504;13.498;2022-12-07T10:44:25;2.45;;;1.30;;
40807;SDS011;26523;52.504;13.498;2022-12-07T10:46:58;1.92;;;1.30;;
40807;SDS011;26523;52.504;13.498;2022-12-07T10:54:45;2.38;;;1.13;;
40807;SDS011;26523;52.504;13.498;2022-12-07T11:01:04;2.17;;;1.13;;
40807;SDS011;26523;52.504;13.498;2022-12-07T11:09:49;2.53;;;1.27;;
40807;SDS011;26523;52.504;13.498;2022-12-07T11:12:33;3.33;;;1.40;;
40807;SDS011;26523;52.504;13.498;2022-12-07T11:15:24;3.40;;;1.45;;
40807;SDS011;26523;52.504;13.498;2022-12-07T11:31:39;5.50;;;1.73;;
40807;SDS011;26523;52.504;13.498;2022-12-07T11:34:27;3.92;;;1.58;;
40807;SDS011;26523;52.504;13.498;2022-12-07T11:37:17;3.13;;;1.63;;
40807;SDS011;26523;52.504;13.498;2022-12-07T11:39:51;4.38;;;1.75;;
40807;SDS011;26523;52.504;13.498;2022-12-07T11:42:30;2.92;;;1.55;;
40807;SDS011;26523;52.504;13.498;2022-12-07T11:47:48;3.55;;;1.90;;
40807;SDS011;26523;52.504;13.498;2022-12-07T11:50:27;4.47;;;1.80;;
40807;SDS011;26523;52.504;13.498;2022-12-07T11:53:27;3.08;;;1.42;;
40807;SDS011;26523;52.504;13.498;2022-12-07T12:03:40;6.43;;;2.50;;
40807;SDS011;26523;52.504;13.498;2022-12-07T12:06:12;3.40;;;1.83;;
40807;SDS011;26523;52.504;13.498;2022-12-07T12:08:43;3.13;;;1.65;;
40807;SDS011;26523;52.504;13.498;2022-12-07T12:14:05;1.52;;;1.20;;
40807;SDS011;26523;52.504;13.498;2022-12-07T12:16:48;4.03;;;1.73;;
40807;SDS011;26523;52.504;13.498;2022-12-07T12:22:08;4.85;;;1.70;;
40807;SDS011;26523;52.504;13.498;2022-12-07T12:24:41;3.47;;;1.80;;
40807;SDS011;26523;52.504;13.498;2022-12-07T12:27:14;4.40;;;1.35;;
40807;SDS011;26523;52.504;13.498;2022-12-07T12:29:50;5.30;;;1.27;;
40807;SDS011;26523;52.504;13.498;2022-12-07T12:35:26;3.13;;;1.42;;
40807;SDS011;26523;52.504;13.498;2022-12-07T12:37:52;7.32;;;1.77;;
40807;SDS011;26523;52.504;13.498;2022-12-07T12:42:53;10.40;;;1.75;;
40807;SDS011;26523;52.504;13.498;2022-12-07T12:45:27;5.20;;;1.52;;
40807;SDS011;26523;52.504;13.498;2022-12-07T12:50:44;5.30;;;1.70;;
40807;SDS011;26523;52.504;13.498;2022-12-07T12:56:11;7.40;;;1.60;;
40807;SDS011;26523;52.504;13.498;2022-12-07T12:59:18;4.80;;;1.45;;
40807;SDS011;26523;52.504;13.498;2022-12-07T13:01:46;5.72;;;1.83;;
40807;SDS011;26523;52.504;13.498;2022-12-07T13:04:17;2.75;;;1.48;;
40807;SDS011;26523;52.504;13.498;2022-12-07T13:06:55;4.85;;;1.63;;
40807;SDS011;26523;52.504;13.498;2022-12-07T13:09:26;2.88;;;1.27;;
40807;SDS011;26523;52.504;13.498;2022-12-07T13:11:58;3.40;;;1.20;;
40807;SDS011;26523;52.504;13.498;2022-12-07T13:17:10;7.10;;;1.50;;
40807;SDS011;26523;52.504;13.498;2022-12-07T13:20:42;5.20;;;1.45;;
40807;SDS011;26523;52.504;13.498;2022-12-07T13:24:56;3.85;;;1.50;;
40807;SDS011;26523;52.504;13.498;2022-12-07T13:27:21;3.25;;;0.90;;
40807;SDS011;26523;52.504;13.498;2022-12-07T13:29:49;3.67;;;0.88;;
40807;SDS011;26523;52.504;13.498;2022-12-07T13:32:26;5.30;;;1.50;;
40807;SDS011;26523;52.504;13.498;2022-12-07T13:34:53;2.35;;;1.38;;
40807;SDS011;26523;52.504;13.498;2022-12-07T13:37:28;5.57;;;1.05;;
40807;SDS011;26523;52.504;13.498;2022-12-07T13:40:01;6.97;;;1.40;;
40807;SDS011;26523;52.504;13.498;2022-12-07T13:42:47;7.35;;;2.13;;
40807;SDS011;26523;52.504;13.498;2022-12-07T13:45:26;6.25;;;1.60;;
40807;SDS011;26523;52.504;13.498;2022-12-07T13:50:56;5.97;;;1.70;;
40807;SDS011;26523;52.504;13.498;2022-12-07T13:53:23;1.83;;;1.17;;
40807;SDS011;26523;52.504;13.498;2022-12-07T13:55:53;3.35;;;1.05;;
40807;SDS011;26523;52.504;13.498;2022-12-07T13:58:19;3.17;;;1.15;;
40807;SDS011;26523;52.504;13.498;2022-12-07T14:00:45;10.38;;;1.65;;
40807;SDS011;26523;52.504;13.498;2022-12-07T14:05:36;3.85;;;1.30;;
40807;SDS011;26523;52.504;13.498;2022-12-07T14:08:04;1.60;;;1.08;;
40807;SDS011;26523;52.504;13.498;2022-12-07T14:10:38;2.88;;;2.08;;
40807;SDS011;26523;52.504;13.498;2022-12-07T14:13:24;4.22;;;2.58;;
40807;SDS011;26523;52.504;13.498;2022-12-07T14:15:55;1.75;;;0.98;;
40807;SDS011;26523;52.504;13.498;2022-12-07T14:18:27;2.92;;;1.67;;
40807;SDS011;26523;52.504;13.498;2022-12-07T14:24:10;8.30;;;1.38;;
40807;SDS011;26523;52.504;13.498;2022-12-07T14:26:42;5.40;;;1.35;;
40807;SDS011;26523;52.504;13.498;2022-12-07T14:32:13;9.27;;;1.35;;
40807;SDS011;26523;52.504;13.498;2022-12-07T14:34:58;1.63;;;1.00;;
40807;SDS011;26523;52.504;13.498;2022-12-07T14:37:33;5.43;;;1.02;;
40807;SDS011;26523;52.504;13.498;2022-12-07T14:39:59;2.17;;;1.13;;
40807;SDS011;26523;52.504;13.498;2022-12-07T14:42:26;4.18;;;0.85;;
40807;SDS011;26523;52.504;13.498;2022-12-07T14:44:54;3.17;;;1.30;;
40807;SDS011;26523;52.504;13.498;2022-12-07T14:47:21;2.63;;;1.33;;
40807;SDS011;26523;52.504;13.498;2022-12-07T14:49:46;5.03;;;0.93;;
40807;SDS011;26523;52.504;13.498;2022-12-07T14:52:14;2.80;;;1.17;;
40807;SDS011;26523;52.504;13.498;2022-12-07T14:55:01;10.57;;;1.90;;
40807;SDS011;26523;52.504;13.498;2022-12-07T14:57:26;3.70;;;1.85;;
40807;SDS011;26523;52.504;13.498;2022-12-07T14:59:52;3.78;;;1.35;;
40807;SDS011;26523;52.504;13.498;2022-12-07T15:02:18;3.97;;;1.25;;
40807;SDS011;26523;52.504;13.498;2022-12-07T15:04:43;6.15;;;1.50;;
40807;SDS011;26523;52.504;13.498;2022-12-07T15:07:12;5.38;;;1.25;;
40807;SDS011;26523;52.504;13.498;2022-12-07T15:09:43;4.80;;;1.73;;
40807;SDS011;26523;52.504;13.498;2022-12-07T15:12:09;5.72;;;1.23;;
40807;SDS011;26523;52.504;13.498;2022-12-07T15:14:35;2.63;;;1.40;;
40807;SDS011;26523;52.504;13.498;2022-12-07T15:17:01;7.32;;;1.42;;
40807;SDS011;26523;52.504;13.498;2022-12-07T15:19:27;8.48;;;1.35;;
40807;SDS011;26523;52.504;13.498;2022-12-07T15:21:53;2.10;;;1.08;;
40807;SDS011;26523;52.504;13.498;2022-12-07T15:24:18;3.17;;;1.00;;
40807;SDS011;26523;52.504;13.498;2022-12-07T15:26:45;4.95;;;1.27;;
40807;SDS011;26523;52.504;13.498;2022-12-07T15:29:11;2.88;;;1.13;;
40807;SDS011;26523;52.504;13.498;2022-12-07T15:31:37;4.22;;;0.90;;
40807;SDS011;26523;52.504;13.498;2022-12-07T15:34:03;4.85;;;1.55;;
40807;SDS011;26523;52.504;13.498;2022-12-07T15:36:30;7.25;;;1.80;;
40807;SDS011;26523;52.504;13.498;2022-12-07T15:38:57;1.70;;;1.17;;
40807;SDS011;26523;52.504;13.498;2022-12-07T15:41:23;3.00;;;1.20;;
40807;SDS011;26523;52.504;13.498;2022-12-07T15:43:49;5.80;;;1.42;;
40807;SDS011;26523;52.504;13.498;2022-12-07T15:46:34;8.98;;;1.30;;
40807;SDS011;26523;52.504;13.498;2022-12-07T15:49:02;2.33;;;0.95;;
40807;SDS011;26523;52.504;13.498;2022-12-07T15:51:29;1.85;;;0.98;;
40807;SDS011;26523;52.504;13.498;2022-12-07T15:53:56;4.88;;;1.35;;
40807;SDS011;26523;52.504;13.498;2022-12-07T15:56:22;4.07;;;1.45;;
40807;SDS011;26523;52.504;13.498;2022-12-07T15:58:48;2.65;;;1.50;;
40807;SDS011;26523;52.504;13.498;2022-12-07T16:01:15;4.57;;;1.10;;
40807;SDS011;26523;52.504;13.498;2022-12-07T16:03:43;8.10;;;1.67;;
40807;SDS011;26523;52.504;13.498;2022-12-07T16:06:09;2.05;;;1.45;;
40807;SDS011;26523;52.504;13.498;2022-12-07T16:08:35;3.53;;;1.23;;
40807;SDS011;26523;52.504;13.498;2022-12-07T16:11:04;3.65;;;1.50;;
40807;SDS011;26523;52.504;13.498;2022-12-07T16:13:31;9.07;;;1.80;;
40807;SDS011;26523;52.504;13.498;2022-12-07T16:15:57;3.70;;;1.20;;
40807;SDS011;26523;52.504;13.498;2022-12-07T16:18:23;2.28;;;0.80;;
40807;SDS011;26523;52.504;13.498;2022-12-07T16:20:48;9.55;;;2.17;;
40807;SDS011;26523;52.504;13.498;2022-12-07T16:23:14;3.10;;;1.00;;
40807;SDS011;26523;52.504;13.498;2022-12-07T16:25:40;2.67;;;1.10;;
40807;SDS011;26523;52.504;13.498;2022-12-07T16:28:06;4.15;;;0.93;;
40807;SDS011;26523;52.504;13.498;2022-12-07T16:30:33;3.55;;;1.30;;
40807;SDS011;26523;52.504;13.498;2022-12-07T16:32:59;2.22;;;1.30;;
40807;SDS011;26523;52.504;13.498;2022-12-07T16:35:24;6.35;;;1.38;;
40807;SDS011;26523;52.504;13.498;2022-12-07T16:37:50;3.83;;;1.55;;
40807;SDS011;26523;52.504;13.498;2022-12-07T16:40:15;4.03;;;1.00;;
40807;SDS011;26523;52.504;13.498;2022-12-07T16:42:41;1.85;;;0.75;;